createdAt,value
2019-03-02T00:00:02.270Z,7.58
2019-03-02T00:03:06.805Z,7.70
2019-03-02T00:06:09.868Z,7.68
2019-03-02T00:09:13.010Z,7.84
2019-03-02T00:12:16.287Z,7.67
2019-03-02T00:15:19.247Z,7.69
2019-03-02T00:18:22.208Z,7.70
2019-03-02T00:21:27.599Z,7.72
2019-03-02T00:24:30.587Z,7.84
2019-03-02T00:27:33.562Z,7.61
2019-03-02T00:30:36.523Z,7.60
2019-03-02T00:33:39.469Z,7.57
2019-03-02T00:36:42.676Z,7.72
2019-03-02T00:39:45.639Z,7.59
2019-03-02T00:42:48.809Z,7.66
2019-03-02T00:45:53.454Z,7.53
2019-03-02T00:48:56.407Z,7.37
2019-03-02T00:52:00.008Z,7.49
2019-03-02T00:55:03.369Z,7.51
2019-03-02T00:58:08.080Z,7.67
2019-03-02T01:01:11.290Z,7.64
2019-03-02T01:04:14.360Z,7.69
2019-03-02T01:07:20.808Z,7.77
2019-03-02T01:10:23.629Z,7.54
2019-03-02T01:13:26.663Z,7.68
2019-03-02T01:16:30.014Z,7.72
2019-03-02T01:19:33.871Z,7.56
2019-03-02T01:22:38.001Z,7.61
2019-03-02T01:25:41.784Z,7.62
2019-03-02T01:28:45.383Z,7.65
2019-03-02T01:31:48.408Z,7.55
2019-03-02T01:34:51.350Z,7.69
2019-03-02T01:37:54.889Z,7.70
2019-03-02T01:40:58.313Z,7.69
2019-03-02T01:44:01.354Z,7.67
2019-03-02T01:47:04.585Z,7.68
2019-03-02T01:50:11.997Z,7.60
2019-03-02T01:53:15.555Z,7.67
2019-03-02T01:56:18.494Z,7.57
2019-03-02T01:59:22.392Z,7.57
2019-03-02T02:02:25.330Z,7.63
2019-03-02T02:05:31.884Z,7.73
2019-03-02T02:08:34.114Z,7.60
2019-03-02T02:11:37.716Z,7.54
2019-03-02T02:14:41.529Z,7.53
2019-03-02T02:17:44.746Z,7.36
2019-03-02T02:20:50.329Z,7.57
2019-03-02T02:23:52.931Z,7.59
2019-03-02T02:26:56.152Z,7.68
2019-03-02T02:29:59.687Z,7.68
2019-03-02T02:33:05.452Z,7.59
2019-03-02T02:36:08.070Z,7.58
2019-03-02T02:39:15.447Z,7.62
2019-03-02T02:42:18.922Z,7.48
2019-03-02T02:45:22.221Z,7.37
2019-03-02T02:48:30.995Z,7.37
2019-03-02T02:51:32.001Z,7.59
2019-03-02T02:54:34.958Z,7.44
2019-03-02T02:57:38.326Z,7.38
2019-03-02T03:00:43.069Z,7.59
2019-03-02T03:03:46.323Z,7.66
2019-03-02T03:06:49.333Z,7.69
2019-03-02T03:09:57.805Z,7.45
2019-03-02T03:13:02.394Z,7.47
2019-03-02T03:16:11.724Z,7.34
2019-03-02T03:19:12.532Z,7.51
2019-03-02T03:22:15.578Z,7.54
2019-03-02T03:25:19.454Z,7.37
2019-03-02T03:28:26.066Z,7.33
2019-03-02T03:31:31.659Z,7.36
2019-03-02T03:34:34.544Z,7.20
2019-03-02T03:37:38.055Z,7.41
2019-03-02T03:40:41.371Z,7.49
2019-03-02T03:43:44.623Z,7.43
2019-03-02T03:46:47.869Z,7.37
2019-03-02T03:49:51.374Z,7.38
2019-03-02T03:52:55.207Z,7.32
2019-03-02T03:56:03.664Z,7.31
2019-03-02T03:59:03.308Z,7.47
2019-03-02T04:02:06.537Z,7.32
2019-03-02T04:05:10.400Z,7.35
2019-03-02T04:08:13.679Z,7.37
2019-03-02T04:11:16.684Z,7.29
2019-03-02T04:14:23.447Z,7.45
2019-03-02T04:17:24.881Z,7.31
2019-03-02T04:20:35.421Z,7.34
2019-03-02T04:23:38.684Z,7.32
2019-03-02T04:26:41.634Z,7.41
2019-03-02T04:29:49.897Z,7.36
2019-03-02T04:32:51.355Z,7.34
2019-03-02T04:35:54.909Z,7.30
2019-03-02T04:38:57.865Z,7.54
2019-03-02T04:42:02.328Z,7.29
2019-03-02T04:45:05.989Z,7.25
2019-03-02T04:48:09.373Z,7.28
2019-03-02T04:51:12.624Z,7.12
2019-03-02T04:54:15.632Z,6.93
2019-03-02T04:57:18.591Z,7.21
2019-03-02T05:00:21.825Z,7.05
2019-03-02T05:03:25.012Z,6.97
2019-03-02T05:06:27.950Z,7.24
2019-03-02T05:09:30.913Z,7.33
2019-03-02T05:12:34.529Z,7.31
2019-03-02T05:15:37.796Z,7.27
2019-03-02T05:18:40.751Z,7.19
2019-03-02T05:21:44.393Z,7.20
2019-03-02T05:24:48.443Z,6.97
2019-03-02T05:27:52.040Z,6.97
2019-03-02T05:30:55.310Z,7.03
2019-03-02T05:34:00.713Z,7.08
2019-03-02T05:37:03.930Z,7.15
2019-03-02T05:40:07.258Z,7.23
2019-03-02T05:43:10.263Z,7.12
2019-03-02T05:46:13.541Z,7.11
2019-03-02T05:49:18.504Z,7.12
2019-03-02T05:52:21.873Z,7.03
2019-03-02T05:55:25.522Z,7.10
2019-03-02T05:58:30.382Z,7.06
2019-03-02T06:01:36.758Z,7.13
2019-03-02T06:04:39.793Z,7.18
2019-03-02T06:07:43.555Z,7.09
2019-03-02T06:10:47.057Z,6.93
2019-03-02T06:13:50.308Z,6.99
2019-03-02T06:16:53.831Z,7.08
2019-03-02T06:20:00.245Z,7.12
2019-03-02T06:23:03.382Z,7.03
2019-03-02T06:26:06.640Z,7.16
2019-03-02T06:29:10.448Z,6.98
2019-03-02T06:32:13.414Z,6.89
2019-03-02T06:35:16.374Z,7.16
2019-03-02T06:38:19.717Z,7.07
2019-03-02T06:41:23.002Z,7.10
2019-03-02T06:44:26.273Z,7.16
2019-03-02T06:47:29.935Z,7.15
2019-03-02T06:50:35.705Z,7.21
2019-03-02T06:53:39.365Z,7.21
2019-03-02T06:56:42.607Z,7.22
2019-03-02T06:59:46.162Z,7.21
2019-03-02T07:02:49.220Z,7.13
2019-03-02T07:05:52.571Z,7.20
2019-03-02T07:08:55.614Z,7.29
2019-03-02T07:11:59.197Z,7.26
2019-03-02T07:15:05.071Z,7.27
2019-03-02T07:18:27.289Z,7.30
2019-03-02T07:21:30.262Z,7.13
2019-03-02T07:24:33.592Z,7.10
2019-03-02T07:27:36.578Z,7.11
2019-03-02T07:30:40.811Z,7.27
2019-03-02T07:33:44.852Z,7.19
2019-03-02T07:36:48.072Z,7.15
2019-03-02T07:39:51.668Z,7.11
2019-03-02T07:42:55.228Z,7.04
2019-03-02T07:45:58.454Z,7.28
2019-03-02T07:49:01.694Z,7.19
2019-03-02T07:52:04.652Z,7.16
2019-03-02T07:55:08.654Z,7.13
2019-03-02T07:58:12.932Z,7.16
2019-03-02T08:01:16.703Z,7.24
2019-03-02T08:04:20.992Z,7.28
2019-03-02T08:07:24.329Z,7.23
2019-03-02T08:10:27.329Z,7.36
2019-03-02T08:13:32.733Z,7.35
2019-03-02T08:16:37.786Z,7.40
2019-03-02T08:19:40.645Z,7.44
2019-03-02T08:22:46.233Z,7.36
2019-03-02T08:25:49.187Z,7.51
2019-03-02T08:28:52.564Z,7.56
2019-03-02T08:31:55.867Z,7.46
2019-03-02T08:34:58.842Z,7.38
2019-03-02T08:38:05.419Z,7.49
2019-03-02T08:41:07.827Z,7.72
2019-03-02T08:44:10.756Z,7.78
2019-03-02T08:47:14.033Z,7.72
2019-03-02T08:50:17.905Z,7.76
2019-03-02T08:53:22.503Z,7.71
2019-03-02T08:56:25.795Z,7.67
2019-03-02T08:59:28.984Z,7.61
2019-03-02T09:02:32.827Z,7.66
2019-03-02T09:05:49.078Z,7.74
2019-03-02T09:08:41.620Z,7.64
2019-03-02T09:11:45.779Z,7.53
2019-03-02T09:14:50.106Z,7.51
2019-03-02T09:17:54.246Z,7.63
2019-03-02T09:20:58.230Z,7.61
2019-03-02T09:24:01.609Z,7.64
2019-03-02T09:27:04.824Z,7.66
2019-03-02T09:30:12.240Z,7.72
2019-03-02T09:33:15.280Z,7.57
2019-03-02T09:36:18.226Z,7.57
2019-03-02T09:39:21.178Z,7.63
2019-03-02T09:42:24.466Z,7.71
2019-03-02T09:45:27.443Z,7.80
2019-03-02T09:48:30.746Z,7.72
2019-03-02T09:51:33.688Z,7.70
2019-03-02T09:54:37.828Z,7.80
2019-03-02T09:57:41.307Z,7.84
2019-03-02T10:00:45.950Z,7.72
2019-03-02T10:03:49.201Z,7.62
2019-03-02T10:06:52.687Z,7.81
2019-03-02T10:09:55.669Z,7.84
2019-03-02T10:12:59.052Z,7.86
2019-03-02T10:16:04.511Z,7.91
2019-03-02T10:19:07.168Z,7.87
2019-03-02T10:22:10.412Z,7.97
2019-03-02T10:25:13.559Z,7.95
2019-03-02T10:28:17.655Z,8.03
2019-03-02T10:31:20.621Z,8.10
2019-03-02T10:34:24.847Z,8.20
2019-03-02T10:37:28.087Z,8.23
2019-03-02T10:40:31.328Z,8.29
2019-03-02T10:43:34.856Z,8.19
2019-03-02T10:46:38.166Z,8.30
2019-03-02T10:49:41.122Z,8.42
2019-03-02T10:52:48.958Z,8.36
2019-03-02T10:55:51.767Z,8.49
2019-03-02T10:58:54.819Z,8.61
2019-03-02T11:01:57.777Z,8.38
2019-03-02T11:05:21.063Z,8.55
2019-03-02T11:09:04.145Z,8.76
2019-03-02T11:12:18.388Z,8.65
2019-03-02T11:15:32.761Z,8.79
2019-03-02T11:19:11.360Z,8.98
2019-03-02T11:22:22.869Z,8.99
2019-03-02T11:25:40.877Z,9.02
2019-03-02T11:28:48.934Z,9.20
2019-03-02T11:32:06.833Z,9.63
2019-03-02T11:35:29.671Z,9.32
2019-03-02T11:38:52.819Z,9.50
2019-03-02T11:42:30.293Z,9.45
2019-03-02T11:45:54.046Z,9.33
2019-03-02T11:49:29.702Z,9.36
2019-03-02T11:52:44.915Z,9.28
2019-03-02T11:56:06.552Z,9.20
2019-03-02T11:59:25.933Z,9.25
2019-03-02T12:02:39.303Z,9.21
2019-03-02T12:06:17.328Z,9.26
2019-03-02T12:10:01.008Z,9.51
2019-03-02T12:13:27.713Z,9.27
2019-03-02T12:16:47.000Z,9.37
2019-03-02T12:20:03.495Z,9.39
2019-03-02T12:23:34.044Z,9.45
2019-03-02T12:26:47.418Z,9.45
2019-03-02T12:30:09.206Z,9.58
2019-03-02T12:33:25.587Z,9.65
2019-03-02T12:36:49.226Z,9.94
2019-03-02T12:40:03.586Z,9.77
2019-03-02T12:43:24.178Z,10.16
2019-03-02T12:47:05.357Z,9.84
2019-03-02T12:50:23.109Z,10.11
2019-03-02T12:53:42.356Z,10.23
2019-03-02T12:57:04.951Z,10.52
2019-03-02T13:00:41.363Z,10.66
2019-03-02T13:04:05.654Z,10.56
2019-03-02T13:07:15.819Z,11.18
2019-03-02T13:10:28.268Z,11.12
2019-03-02T13:14:09.183Z,11.78
2019-03-02T13:17:37.248Z,11.43
2019-03-02T13:20:59.625Z,11.68
2019-03-02T13:24:24.122Z,11.79
2019-03-02T13:28:01.039Z,11.32
2019-03-02T13:31:26.333Z,11.69
2019-03-02T13:34:55.139Z,12.16
2019-03-02T13:38:04.800Z,11.66
2019-03-02T13:41:30.695Z,11.77
2019-03-02T13:44:47.775Z,11.91
2019-03-02T13:48:13.948Z,12.23
2019-03-02T13:51:37.640Z,12.07
2019-03-02T13:55:18.791Z,11.54
2019-03-02T13:58:54.906Z,11.32
2019-03-02T14:02:21.396Z,11.03
2019-03-02T14:05:43.938Z,10.87
2019-03-02T14:09:09.531Z,10.63
2019-03-02T14:12:28.025Z,10.62
2019-03-02T14:16:00.920Z,10.63
2019-03-02T14:19:26.204Z,10.72
2019-03-02T14:22:58.399Z,10.77
2019-03-02T14:26:27.311Z,10.34
2019-03-02T14:29:53.226Z,10.69
2019-03-02T14:33:05.428Z,10.77
2019-03-02T14:36:26.501Z,10.77
2019-03-02T14:39:38.178Z,10.64
2019-03-02T14:42:53.651Z,10.57
2019-03-02T14:46:23.528Z,10.48
2019-03-02T14:49:52.132Z,10.50
2019-03-02T14:53:13.543Z,10.58
2019-03-02T14:56:34.696Z,10.48
2019-03-02T14:59:56.022Z,10.69
2019-03-02T15:03:25.116Z,10.53
2019-03-02T15:06:34.221Z,10.51
2019-03-02T15:09:45.524Z,10.40
2019-03-02T15:13:00.640Z,10.22
2019-03-02T15:16:32.458Z,10.33
2019-03-02T15:19:57.291Z,10.41
2019-03-02T15:23:07.352Z,10.43
2019-03-02T15:26:28.347Z,10.31
2019-03-02T15:30:03.076Z,10.44
2019-03-02T15:33:46.706Z,10.29
2019-03-02T15:37:14.310Z,10.07
2019-03-02T15:40:34.493Z,10.08
2019-03-02T15:43:59.929Z,10.19
2019-03-02T15:47:20.401Z,9.99
2019-03-02T15:50:35.359Z,10.15
2019-03-02T15:53:52.921Z,10.00
2019-03-02T15:57:16.273Z,10.09
2019-03-02T16:00:30.028Z,10.04
2019-03-02T16:03:45.260Z,10.04
2019-03-02T16:07:06.216Z,10.02
2019-03-02T16:10:43.595Z,10.09
2019-03-02T16:14:07.513Z,9.88
2019-03-02T16:17:39.928Z,9.96
2019-03-02T16:21:04.723Z,9.87
2019-03-02T16:24:33.324Z,9.94
2019-03-02T16:27:51.481Z,10.02
2019-03-02T16:31:14.308Z,10.00
2019-03-02T16:34:33.267Z,9.87
2019-03-02T16:38:08.041Z,9.73
2019-03-02T16:41:21.895Z,9.73
2019-03-02T16:44:56.681Z,9.81
2019-03-02T16:48:07.368Z,9.76
2019-03-02T16:51:30.535Z,9.60
2019-03-02T16:54:51.801Z,9.53
2019-03-02T16:58:00.996Z,9.59
2019-03-02T17:01:15.755Z,9.65
2019-03-02T17:04:39.470Z,9.56
2019-03-02T17:08:08.241Z,9.53
2019-03-02T17:11:22.548Z,9.57
2019-03-02T17:14:46.010Z,9.56
2019-03-02T17:18:09.191Z,9.59
2019-03-02T17:21:30.936Z,9.49
2019-03-02T17:25:00.375Z,9.45
2019-03-02T17:28:26.281Z,9.34
2019-03-02T17:31:39.423Z,9.39
2019-03-02T17:35:07.659Z,9.36
2019-03-02T17:38:33.473Z,9.44
2019-03-02T17:41:54.947Z,9.43
2019-03-02T17:45:14.475Z,9.49
2019-03-02T17:48:28.328Z,9.51
2019-03-02T17:52:03.352Z,9.50
2019-03-02T17:55:29.722Z,9.36
2019-03-02T17:58:42.613Z,9.43
2019-03-02T18:02:08.987Z,9.52
2019-03-02T18:05:31.120Z,9.52
2019-03-02T18:08:44.853Z,9.48
2019-03-02T18:12:17.298Z,9.45
2019-03-02T18:15:38.534Z,9.41
2019-03-02T18:18:41.516Z,9.41
2019-03-02T18:21:45.151Z,9.46
2019-03-02T18:24:48.512Z,9.44
2019-03-02T18:27:51.562Z,9.44
2019-03-02T18:30:57.427Z,9.52
2019-03-02T18:34:07.165Z,9.53
2019-03-02T18:37:10.705Z,9.58
2019-03-02T18:40:14.054Z,9.49
2019-03-02T18:43:17.940Z,9.46
2019-03-02T18:46:21.185Z,9.46
2019-03-02T18:49:39.577Z,9.48
2019-03-02T18:52:53.771Z,9.42
2019-03-02T18:55:57.909Z,9.44
2019-03-02T18:59:04.292Z,9.54
2019-03-02T19:02:11.506Z,9.46
2019-03-02T19:05:13.214Z,9.44
2019-03-02T19:08:16.822Z,9.50
2019-03-02T19:11:20.187Z,9.47
2019-03-02T19:14:23.185Z,9.54
2019-03-02T19:17:26.206Z,9.50
2019-03-02T19:20:30.053Z,9.51
2019-03-02T19:23:33.160Z,9.49
2019-03-02T19:26:36.386Z,9.52
2019-03-02T19:29:39.347Z,9.53
2019-03-02T19:32:42.629Z,9.51
2019-03-02T19:35:45.879Z,9.55
2019-03-02T19:38:49.149Z,9.54
2019-03-02T19:41:52.639Z,9.52
2019-03-02T19:44:55.616Z,9.52
2019-03-02T19:47:58.999Z,9.51
2019-03-02T19:51:02.545Z,9.52
2019-03-02T19:54:05.913Z,9.55
2019-03-02T19:57:09.193Z,9.62
2019-03-02T20:00:21.192Z,9.67
2019-03-02T20:03:24.255Z,9.66
2019-03-02T20:06:27.872Z,9.62
2019-03-02T20:09:31.492Z,9.61
2019-03-02T20:12:34.592Z,9.61
2019-03-02T20:15:37.892Z,9.62
2019-03-02T20:18:41.272Z,9.60
2019-03-02T20:21:44.352Z,9.61
2019-03-02T20:24:50.145Z,9.60
2019-03-02T20:27:53.399Z,9.61
2019-03-02T20:30:56.921Z,9.59
2019-03-02T20:33:59.968Z,9.65
2019-03-02T20:37:03.268Z,9.63
2019-03-02T20:40:09.924Z,9.65
2019-03-02T20:43:13.097Z,9.68
2019-03-02T20:46:18.430Z,9.67
2019-03-02T20:49:21.680Z,9.70
2019-03-02T20:52:25.037Z,9.67
2019-03-02T20:55:28.385Z,9.66
2019-03-02T20:58:31.702Z,9.67
2019-03-02T21:01:35.494Z,9.70
2019-03-02T21:04:38.701Z,9.66
2019-03-02T21:07:41.788Z,9.67
2019-03-02T21:10:45.230Z,9.70
2019-03-02T21:13:48.729Z,9.72
2019-03-02T21:16:53.462Z,9.76
2019-03-02T21:19:56.862Z,9.72
2019-03-02T21:23:00.502Z,9.77
2019-03-02T21:26:05.995Z,9.72
2019-03-02T21:29:10.070Z,9.71
2019-03-02T21:32:13.024Z,9.71
2019-03-02T21:35:16.270Z,9.73
2019-03-02T21:38:19.907Z,9.72
2019-03-02T21:41:23.479Z,9.74
2019-03-02T21:44:26.456Z,9.75
2019-03-02T21:47:29.791Z,9.71
2019-03-02T21:50:33.158Z,9.73
2019-03-02T21:53:36.101Z,9.73
2019-03-02T21:56:39.656Z,9.77
2019-03-02T21:59:43.610Z,9.75
2019-03-02T22:02:46.985Z,9.73
2019-03-02T22:05:49.955Z,9.75
2019-03-02T22:08:52.911Z,9.73
2019-03-02T22:11:56.899Z,9.73
2019-03-02T22:15:00.456Z,9.70
2019-03-02T22:18:03.627Z,9.69
2019-03-02T22:21:06.592Z,9.67
2019-03-02T22:24:09.815Z,9.65
2019-03-02T22:27:12.795Z,9.59
2019-03-02T22:30:19.076Z,9.59
2019-03-02T22:33:22.640Z,9.53
2019-03-02T22:36:27.168Z,9.56
2019-03-02T22:39:30.464Z,9.52
2019-03-02T22:42:34.154Z,9.56
2019-03-02T22:45:37.365Z,9.56
2019-03-02T22:48:40.621Z,9.62
2019-03-02T22:51:43.578Z,9.65
2019-03-02T22:54:46.805Z,9.62
2019-03-02T22:57:50.367Z,9.65
2019-03-02T23:01:31.333Z,9.66
2019-03-02T23:04:34.515Z,9.67
2019-03-02T23:07:37.795Z,9.67
2019-03-02T23:10:40.802Z,9.70
2019-03-02T23:13:44.039Z,9.69
2019-03-02T23:16:47.272Z,9.74
2019-03-02T23:19:50.281Z,9.76
2019-03-02T23:22:53.244Z,9.75
2019-03-02T23:25:56.191Z,9.80
2019-03-02T23:28:59.437Z,9.79
2019-03-02T23:32:02.476Z,9.85
2019-03-02T23:35:05.429Z,9.81
2019-03-02T23:38:08.819Z,9.82
2019-03-02T23:41:12.390Z,9.83
2019-03-02T23:44:15.644Z,9.83
2019-03-02T23:47:18.584Z,9.91
2019-03-02T23:50:22.119Z,9.82
2019-03-02T23:53:25.442Z,9.86
2019-03-02T23:56:28.997Z,9.80
2019-03-02T23:59:32.611Z,9.78
